Time;durP1;ratioP1;P1;durP2;ratioP2;P2;SDS_P1;SDS_P2;PMS_P1;PMS_P2;Temp;Humidity;BMP_temperature;BMP_pressure;BME280_temperature;BME280_humidity;BME280_pressure;Samples;Min_cycle;Max_cycle;Signal;HPM_P1;HPM_P2
2022/06/07 00:00:57;;;;;;;24.50;20.32;;;;;;;19.14;90.29;99017.94;1720042;82;21469;-55
2022/06/07 00:03:23;;;;;;;22.95;19.90;;;;;;;19.09;91.52;99018.87;1719925;83;20963;-47
2022/06/07 00:05:49;;;;;;;24.33;21.00;;;;;;;19.04;91.39;99015.80;1720095;83;21468;-43
2022/06/07 00:08:18;;;;;;;24.75;18.67;;;;;;;18.99;91.76;99015.39;1719867;82;21006;-46
2022/06/07 00:10:48;;;;;;;24.20;19.95;;;;;;;18.99;91.98;99014.05;1719889;83;21025;-50
2022/06/07 00:13:16;;;;;;;23.42;20.05;;;;;;;18.96;92.66;99015.70;1719872;83;20999;-50
2022/06/07 00:15:43;;;;;;;25.12;20.25;;;;;;;18.92;92.57;99019.15;1719861;82;21500;-45
2022/06/07 00:18:11;;;;;;;23.38;20.20;;;;;;;18.90;92.18;99017.59;1719929;83;20991;-49
2022/06/07 00:20:39;;;;;;;23.60;20.30;;;;;;;18.88;92.68;99022.23;1719987;83;20967;-43
2022/06/07 00:23:09;;;;;;;31.70;20.70;;;;;;;18.85;93.20;99018.05;1719887;83;21047;-43
2022/06/07 00:25:36;;;;;;;28.25;20.12;;;;;;;18.78;92.89;99012.41;1719859;83;20979;-47
2022/06/07 00:28:03;;;;;;;23.73;20.70;;;;;;;18.75;93.36;99004.70;1720041;83;20995;-52
2022/06/07 00:30:30;;;;;;;26.13;21.20;;;;;;;18.74;92.89;99006.20;1720164;83;21042;-41
2022/06/07 00:32:57;;;;;;;23.87;20.90;;;;;;;18.74;93.35;99006.20;1719859;83;20994;-47
2022/06/07 00:35:23;;;;;;;30.62;21.23;;;;;;;18.71;93.17;99001.98;1719928;83;20959;-47
2022/06/07 00:37:49;;;;;;;23.02;19.35;;;;;;;18.70;93.84;99002.98;1719863;83;21026;-46
2022/06/07 00:40:16;;;;;;;25.20;20.00;;;;;;;18.71;92.43;98999.31;1719842;82;21535;-50
2022/06/07 00:42:42;;;;;;;25.05;20.65;;;;;;;18.72;92.27;98995.69;1720166;83;20963;-53
2022/06/07 00:45:19;;;;;;;23.85;20.20;;;;;;;18.72;92.91;98989.50;1719830;83;21026;-49
2022/06/07 00:47:46;;;;;;;25.80;19.42;;;;;;;18.69;92.57;98987.14;1719751;83;20975;-46
2022/06/07 00:50:23;;;;;;;24.80;20.05;;;;;;;18.66;92.82;98987.42;1720103;83;21445;-47
2022/06/07 00:52:49;;;;;;;22.42;18.92;;;;;;;18.62;92.80;98986.87;1719721;83;20979;-47
2022/06/07 00:55:15;;;;;;;22.98;19.55;;;;;;;18.61;92.69;98985.20;1724500;80;21039;-56
2022/06/07 00:57:42;;;;;;;23.45;19.17;;;;;;;18.58;93.11;98980.98;1757164;80;20999;-42
2022/06/07 01:00:11;;;;;;;;;;;;;;;18.54;93.46;98974.27;1764065;81;20990;-50
2022/06/07 01:02:36;;;;;;;23.87;19.92;;;;;;;18.46;94.12;98970.14;1761421;81;20437;-49
2022/06/07 01:05:04;;;;;;;24.20;20.32;;;;;;;18.45;94.12;98974.31;1761430;81;21003;-43
2022/06/07 01:12:58;;;;;;;22.25;19.17;;;;;;;18.37;93.68;98971.86;1761410;80;20998;-53
2022/06/07 01:15:23;;;;;;;22.27;19.20;;;;;;;18.36;94.01;98974.66;1761389;81;20980;-46
2022/06/07 01:17:50;;;;;;;25.90;19.48;;;;;;;18.33;94.60;98979.77;1761458;81;20980;-42
2022/06/07 01:20:16;;;;;;;25.70;19.27;;;;;;;18.32;94.34;98981.23;1761651;81;21440;-50
2022/06/07 01:22:42;;;;;;;24.23;20.15;;;;;;;18.31;94.27;98980.90;1761462;81;21456;-49
2022/06/07 01:25:09;;;;;;;22.65;20.20;;;;;;;18.30;94.13;98981.87;1761461;80;21010;-46
2022/06/07 01:27:35;;;;;;;25.30;20.65;;;;;;;18.32;93.57;98984.75;1761559;81;20967;-52
2022/06/07 01:30:00;;;;;;;23.92;20.02;;;;;;;18.34;92.57;98981.45;1761402;81;20978;-48
2022/06/07 01:32:26;;;;;;;26.90;19.90;;;;;;;18.37;92.16;98971.00;1761394;81;21007;-52
2022/06/07 01:34:53;;;;;;;27.48;20.08;;;;;;;18.38;92.22;98980.18;1761405;81;20987;-43
2022/06/07 01:37:19;;;;;;;24.05;19.73;;;;;;;18.38;92.35;98971.36;1761677;81;20975;-51
2022/06/07 01:42:30;;;;;;;24.18;20.95;;;;;;;18.33;92.76;98981.09;1761404;81;21469;-44
2022/06/07 01:44:56;;;;;;;27.90;20.80;;;;;;;18.29;93.44;98958.91;1761360;81;20963;-48
2022/06/07 01:47:26;;;;;;;24.75;19.32;;;;;;;18.26;93.50;98962.67;1761396;81;20991;-52
2022/06/07 01:49:52;;;;;;;26.33;20.55;;;;;;;18.23;94.46;98960.32;1761400;81;21509;-44
2022/06/07 01:52:22;;;;;;;25.68;20.15;;;;;;;18.20;94.04;98963.26;1761877;81;21030;-48
2022/06/07 01:54:51;;;;;;;26.87;20.88;;;;;;;18.18;94.21;98957.24;1761384;81;21330;-48
2022/06/07 01:57:17;;;;;;;29.07;20.50;;;;;;;18.12;94.69;98965.30;1761260;81;21441;-49
2022/06/07 01:59:42;;;;;;;28.47;20.05;;;;;;;18.11;93.80;98962.28;1761301;80;21023;-52
2022/06/07 02:02:09;;;;;;;25.72;20.12;;;;;;;18.10;94.08;98965.08;1761416;81;21014;-46
2022/06/07 02:04:39;;;;;;;22.48;19.62;;;;;;;18.08;93.94;98963.91;1761520;81;21014;-41
2022/06/07 02:07:07;;;;;;;29.85;20.62;;;;;;;18.06;94.13;98963.69;1761350;81;20991;-44
2022/06/07 02:09:34;;;;;;;29.63;20.55;;;;;;;18.05;94.41;98962.02;1761393;81;20968;-47
2022/06/07 02:12:00;;;;;;;23.60;20.93;;;;;;;18.04;93.65;98961.16;1761612;81;21496;-44
2022/06/07 02:14:27;;;;;;;28.27;20.23;;;;;;;18.07;93.54;98965.37;1761462;81;20967;-47
2022/06/07 02:16:53;;;;;;;27.87;21.23;;;;;;;18.09;93.00;98964.74;1761363;81;20991;-51
2022/06/07 02:19:19;;;;;;;31.45;20.65;;;;;;;18.05;93.57;98964.19;1761637;81;20980;-55
2022/06/07 02:21:45;;;;;;;26.65;20.60;;;;;;;18.02;93.41;98961.30;1761526;81;20971;-47
2022/06/07 02:24:11;;;;;;;26.20;20.32;;;;;;;18.01;93.84;98967.61;1761545;81;20968;-52
2022/06/07 02:26:57;;;;;;;26.60;20.65;;;;;;;18.01;93.68;98975.59;1761509;81;20983;-44
2022/06/07 02:29:29;;;;;;;25.20;20.30;;;;;;;18.02;92.66;98977.26;1744481;81;21536;-54
2022/06/07 02:32:06;;;;;;;29.30;19.95;;;;;;;18.03;92.71;98970.97;1761538;81;20983;-44
2022/06/07 02:34:34;;;;;;;34.88;21.05;;;;;;;17.95;94.06;98967.33;1761440;81;20960;-48
2022/06/07 02:37:04;;;;;;;26.27;20.15;;;;;;;17.92;93.41;98966.27;1761494;81;21019;-54
2022/06/07 02:39:31;;;;;;;27.17;20.17;;;;;;;17.88;93.25;98959.55;1761664;81;20991;-50
2022/06/07 02:43:30;;;;;;;28.62;21.10;;;;;;;17.86;94.52;98965.00;1800384;79;23491;-48
2022/06/07 02:45:57;;;;;;;31.65;20.92;;;;;;;17.81;94.70;98960.58;1760727;80;21019;-44
2022/06/07 02:48:24;;;;;;;;;;;;;;;17.78;94.78;98951.05;1764345;81;20999;-47
2022/06/07 02:50:52;;;;;;;24.55;20.08;;;;;;;17.77;94.62;98953.84;1761826;80;20112;-47
2022/06/07 02:53:19;;;;;;;22.90;19.80;;;;;;;17.75;94.48;98955.80;1761704;80;21733;-48
2022/06/07 02:55:44;;;;;;;25.43;19.70;;;;;;;17.74;94.04;98959.46;1761843;80;20991;-46
2022/06/07 02:58:10;;;;;;;24.85;19.67;;;;;;;17.75;94.75;98958.46;1761721;81;20999;-46
2022/06/07 03:00:36;;;;;;;28.12;19.10;;;;;;;17.76;94.41;98963.65;1761695;81;20991;-48
2022/06/07 03:03:02;;;;;;;23.67;18.55;;;;;;;17.80;93.83;98966.87;1761645;81;21011;-49
2022/06/07 03:05:28;;;;;;;26.97;20.52;;;;;;;17.82;93.26;98967.56;1761965;80;21026;-50
2022/06/07 03:07:54;;;;;;;29.27;19.48;;;;;;;17.81;93.82;98964.58;1761696;80;20964;-51
2022/06/07 03:10:20;;;;;;;22.82;19.20;;;;;;;17.79;93.81;98957.20;1761692;81;21027;-48
2022/06/07 03:12:46;;;;;;;25.27;19.17;;;;;;;17.79;93.51;98966.51;1762075;81;21508;-47
2022/06/07 03:15:13;;;;;;;21.35;18.85;;;;;;;17.78;94.25;98966.17;1761784;81;21428;-50
2022/06/07 03:17:40;;;;;;;30.90;20.17;;;;;;;17.76;94.15;98961.48;1761787;80;21025;-47
2022/06/07 03:20:08;;;;;;;25.40;19.35;;;;;;;17.78;95.00;98967.50;1761845;80;20999;-46
2022/06/07 03:22:35;;;;;;;29.12;18.77;;;;;;;17.77;94.60;98956.50;1761687;81;21518;-46
2022/06/07 03:25:05;;;;;;;29.45;19.75;;;;;;;17.76;94.62;98956.16;1761826;81;20995;-45
2022/06/07 03:27:34;;;;;;;30.25;18.32;;;;;;;17.79;94.28;98958.53;1761692;81;21464;-53
2022/06/07 03:30:01;;;;;;;32.63;20.52;;;;;;;17.79;94.60;98963.38;1761132;80;20971;-46
2022/06/07 03:32:26;;;;;;;26.42;18.80;;;;;;;17.85;93.71;98958.02;1761703;80;20992;-54
2022/06/07 03:34:53;;;;;;;25.02;18.45;;;;;;;17.87;93.54;98952.07;1761770;81;20951;-47
2022/06/07 03:37:19;;;;;;;24.82;18.37;;;;;;;17.90;94.11;98947.81;1761709;81;21444;-44
2022/06/07 03:39:45;;;;;;;23.35;17.62;;;;;;;17.96;94.78;98957.05;1761709;81;21554;-50
2022/06/07 03:42:12;;;;;;;24.75;17.82;;;;;;;18.01;94.30;98954.81;1756852;81;21012;-51
2022/06/07 03:44:39;;;;;;;20.97;18.57;;;;;;;18.06;94.70;98958.36;1748574;81;20992;-41
2022/06/07 03:47:05;;;;;;;22.55;18.10;;;;;;;18.12;93.65;98957.78;1748791;81;21047;-49
2022/06/07 03:49:31;;;;;;;24.00;18.82;;;;;;;18.14;93.18;98962.50;1748550;81;21441;-52
2022/06/07 03:51:58;;;;;;;24.02;19.70;;;;;;;18.11;93.39;98956.13;1748597;81;20991;-53
2022/06/07 03:54:24;;;;;;;24.20;18.32;;;;;;;18.13;93.86;98958.15;1748457;81;21035;-46
2022/06/07 03:56:49;;;;;;;29.10;19.37;;;;;;;18.15;94.18;98956.18;1748090;81;20984;-47
2022/06/07 03:59:16;;;;;;;25.12;19.80;;;;;;;18.13;94.16;98951.50;1748025;81;20988;-46
2022/06/07 04:01:41;;;;;;;28.12;19.65;;;;;;;18.18;93.58;98942.60;1748091;81;21480;-46
2022/06/07 04:04:09;;;;;;;22.50;18.82;;;;;;;18.15;94.42;98936.23;1748043;81;20987;-50
2022/06/07 04:06:40;;;;;;;26.12;19.75;;;;;;;18.15;94.03;98933.56;1748054;81;21104;-46
2022/06/07 04:09:07;;;;;;;26.15;19.15;;;;;;;18.19;94.02;98930.96;1748039;81;21480;-45
2022/06/07 04:11:33;;;;;;;22.80;18.32;;;;;;;18.17;94.12;98924.94;1748296;81;20995;-46
2022/06/07 04:14:00;;;;;;;22.37;18.85;;;;;;;18.20;93.99;98924.17;1748015;81;20999;-53
2022/06/07 04:16:29;;;;;;;25.10;19.27;;;;;;;18.28;94.04;98923.95;1748301;81;21027;-46
2022/06/07 04:18:55;;;;;;;24.82;18.85;;;;;;;18.32;94.50;98919.54;1748062;81;21050;-50
2022/06/07 04:21:23;;;;;;;22.17;18.42;;;;;;;18.37;94.05;98911.11;1747966;82;20995;-42
2022/06/07 04:23:49;;;;;;;23.70;18.62;;;;;;;18.41;93.88;98908.53;1748014;81;21461;-53
2022/06/07 04:26:20;;;;;;;21.75;18.12;;;;;;;18.48;93.25;98910.96;1748427;81;20995;-51
2022/06/07 04:28:46;;;;;;;27.80;18.20;;;;;;;18.54;93.40;98909.03;1748073;81;21038;-42
2022/06/07 04:31:17;;;;;;;24.90;17.52;;;;;;;18.60;93.74;98902.29;1748040;81;20952;-43
2022/06/07 04:33:44;;;;;;;21.40;17.98;;;;;;;18.64;93.77;98905.50;1748088;81;20996;-53
2022/06/07 04:36:13;;;;;;;27.05;17.98;;;;;;;18.70;93.08;98907.09;1748031;81;21020;-56
2022/06/07 04:38:41;;;;;;;25.32;19.12;;;;;;;18.74;92.82;98907.64;1748018;81;21485;-45
2022/06/07 04:41:12;;;;;;;19.45;17.35;;;;;;;18.77;92.26;98910.00;1748100;81;20980;-42
2022/06/07 04:43:38;;;;;;;24.67;18.57;;;;;;;18.78;92.11;98917.02;1747974;80;21052;-45
2022/06/07 04:46:09;;;;;;;22.25;16.70;;;;;;;18.78;92.61;98917.84;1748028;82;21038;-51
2022/06/07 04:48:37;;;;;;;22.77;17.35;;;;;;;18.79;92.11;98916.88;1748036;82;21035;-44
2022/06/07 04:51:08;;;;;;;26.12;18.75;;;;;;;18.78;92.10;98912.52;1748022;82;21463;-47
2022/06/07 04:53:34;;;;;;;23.65;17.87;;;;;;;18.76;91.85;98917.16;1748111;81;21044;-49
2022/06/07 04:56:16;;;;;;;30.72;17.82;;;;;;;18.76;91.78;98905.17;1748116;81;21504;-46
2022/06/07 04:58:42;;;;;;;25.35;18.52;;;;;;;18.84;91.96;98918.28;1748083;81;21027;-45
2022/06/07 05:01:23;;;;;;;23.07;17.92;;;;;;;18.91;92.26;98918.04;1748041;81;21547;-48
2022/06/07 05:03:49;;;;;;;25.17;18.80;;;;;;;19.03;91.58;98919.53;1748099;81;20987;-53
2022/06/07 05:06:25;;;;;;;31.82;18.40;;;;;;;19.12;91.64;98914.64;1748154;81;20995;-46
2022/06/07 05:08:54;;;;;;;27.02;18.67;;;;;;;19.12;91.09;98912.48;1748094;81;20998;-46
2022/06/07 05:11:20;;;;;;;25.55;17.90;;;;;;;19.22;90.81;98919.91;1748004;81;20984;-50
2022/06/07 05:13:46;;;;;;;29.87;17.67;;;;;;;19.28;90.52;98914.47;1748097;81;21468;-46
2022/06/07 05:16:12;;;;;;;28.25;17.62;;;;;;;19.31;89.84;98921.67;1748108;81;20999;-53
2022/06/07 05:18:38;;;;;;;23.75;16.87;;;;;;;19.33;89.62;98914.36;1737598;82;21000;-50
2022/06/07 05:21:09;;;;;;;29.32;17.17;;;;;;;19.40;89.91;98910.61;1747960;81;20961;-47
2022/06/07 05:23:35;;;;;;;29.40;17.48;;;;;;;19.44;90.00;98906.64;1748031;81;20987;-42
2022/06/07 05:26:27;;;;;;;22.10;17.02;;;;;;;19.50;89.82;98911.86;1748036;81;21460;-52
2022/06/07 05:28:54;;;;;;;21.00;16.52;;;;;;;19.54;89.77;98913.27;1746699;81;21035;-52
2022/06/07 05:31:20;;;;;;;20.00;15.63;;;;;;;19.63;89.64;98919.48;1748192;82;20992;-47
2022/06/07 05:33:46;;;;;;;19.62;14.98;;;;;;;19.69;89.53;98924.23;1747961;81;20996;-53
2022/06/07 05:36:12;;;;;;;22.40;15.68;;;;;;;19.74;88.94;98928.16;1747954;81;21039;-46
2022/06/07 05:38:38;;;;;;;16.15;14.40;;;;;;;19.82;88.55;98933.23;1748240;81;20999;-47
2022/06/07 05:41:04;;;;;;;18.62;15.45;;;;;;;19.85;87.94;98933.76;1748091;81;20984;-50
2022/06/07 05:43:30;;;;;;;31.10;15.93;;;;;;;19.84;87.77;98930.73;1747882;81;21465;-50
2022/06/07 05:45:57;;;;;;;18.73;15.60;;;;;;;19.84;87.84;98933.40;1748292;81;21722;-50
2022/06/07 05:48:23;;;;;;;30.43;18.60;;;;;;;19.83;87.86;98926.41;1748140;82;20964;-49
2022/06/07 05:50:53;;;;;;;19.47;16.13;;;;;;;19.85;87.37;98929.75;1748293;81;21046;-46
2022/06/07 05:53:20;;;;;;;18.90;14.13;;;;;;;19.97;87.75;98932.18;1747988;81;20984;-50
2022/06/07 05:55:47;;;;;;;31.55;16.57;;;;;;;20.09;87.69;98930.45;1748140;81;20984;-46
2022/06/07 05:58:13;;;;;;;;;;;;;;;20.12;87.07;98923.48;1750632;81;20992;-46
2022/06/07 06:00:39;;;;;;;20.20;15.32;;;;;;;20.20;87.31;98916.53;1748270;81;20394;-47
2022/06/07 06:03:06;;;;;;;17.65;13.00;;;;;;;20.31;86.97;98917.59;1747905;81;20984;-50
2022/06/07 06:05:33;;;;;;;19.57;13.65;;;;;;;20.40;86.42;98919.84;1748149;82;21469;-52
2022/06/07 06:10:44;;;;;;;21.12;15.23;;;;;;;20.50;84.58;98924.55;1748074;81;20952;-46
2022/06/07 06:13:10;;;;;;;28.80;16.65;;;;;;;20.51;84.30;98920.91;1748072;81;21478;-48
2022/06/07 06:15:36;;;;;;;34.78;17.50;;;;;;;20.55;84.78;98918.25;1747971;82;21536;-49
2022/06/07 06:18:05;;;;;;;22.25;16.97;;;;;;;20.57;84.39;98916.77;1747996;81;21572;-49
2022/06/07 06:20:32;;;;;;;22.27;16.48;;;;;;;20.59;84.34;98920.97;1748036;81;21160;-50
2022/06/07 06:22:58;;;;;;;20.07;17.00;;;;;;;20.63;83.85;98921.02;1748196;81;20971;-48
2022/06/07 06:25:24;;;;;;;30.12;17.40;;;;;;;20.64;83.63;98923.18;1748023;81;20980;-49
2022/06/07 06:27:50;;;;;;;26.97;16.97;;;;;;;20.62;82.90;98919.33;1748069;81;20962;-54
2022/06/07 06:30:16;;;;;;;23.87;15.83;;;;;;;20.57;82.55;98917.59;1748284;82;20979;-46
2022/06/07 06:32:43;;;;;;;25.08;17.37;;;;;;;20.57;82.82;98914.92;1747990;82;21464;-52
2022/06/07 06:35:10;;;;;;;20.72;15.70;;;;;;;20.52;82.82;98915.91;1748242;81;21026;-47
2022/06/07 06:37:36;;;;;;;23.25;15.70;;;;;;;20.50;82.67;98912.53;1748109;81;20987;-46
2022/06/07 06:40:02;;;;;;;17.67;15.18;;;;;;;20.53;82.82;98906.89;1748130;81;20952;-47
2022/06/07 06:42:28;;;;;;;21.48;16.20;;;;;;;20.53;83.07;98909.56;1747866;81;21110;-52
2022/06/07 06:44:55;;;;;;;21.02;16.12;;;;;;;20.51;82.29;98904.88;1748000;81;20996;-50
2022/06/07 06:47:21;;;;;;;;;;;;;;;20.54;82.35;98908.58;1750680;81;21520;-44
2022/06/07 06:49:47;;;;;;;22.42;15.20;;;;;;;20.45;81.74;98911.69;1748032;81;20097;-45
2022/06/07 06:52:13;;;;;;;40.92;30.17;;;;;;;20.45;81.78;98913.02;1747963;81;21035;-47
2022/06/07 06:54:38;;;;;;;19.48;15.78;;;;;;;20.41;81.53;98913.48;1748005;81;20996;-51
2022/06/07 06:57:05;;;;;;;35.00;16.42;;;;;;;20.45;81.85;98912.20;1747955;82;21026;-51
2022/06/07 06:59:31;;;;;;;27.02;14.43;;;;;;;20.49;82.02;98912.22;1748157;81;21000;-54
2022/06/07 07:01:58;;;;;;;19.80;11.83;;;;;;;20.54;81.58;98911.25;1747955;82;21092;-53
2022/06/07 07:04:24;;;;;;;16.25;10.68;;;;;;;20.55;80.08;98912.91;1748116;81;20991;-47
2022/06/07 07:06:50;;;;;;;59.23;47.95;;;;;;;20.55;78.74;98912.91;1747936;81;20956;-53
2022/06/07 07:09:22;;;;;;;26.80;13.03;;;;;;;20.64;79.78;98899.96;1748322;81;20996;-48
2022/06/07 07:11:51;;;;;;;17.23;11.28;;;;;;;20.75;79.87;98899.36;1747933;81;21434;-50
2022/06/07 07:14:18;;;;;;;18.30;10.40;;;;;;;20.84;79.73;98903.74;1748031;81;20992;-53
2022/06/07 07:16:48;;;;;;;15.25;10.13;;;;;;;20.84;77.23;98902.41;1748118;81;20995;-56
2022/06/07 07:19:16;;;;;;;14.33;9.25;;;;;;;20.88;77.38;98902.42;1747950;82;20952;-53
2022/06/07 07:21:46;;;;;;;12.90;8.45;;;;;;;20.96;77.80;98895.78;1748109;81;21023;-53
2022/06/07 07:24:15;;;;;;;15.40;8.93;;;;;;;21.04;76.32;98898.98;1748064;81;21478;-54
2022/06/07 07:26:44;;;;;;;63.42;11.00;;;;;;;21.11;76.00;98893.83;1747993;81;21031;-40
2022/06/07 07:29:12;;;;;;;26.17;10.65;;;;;;;21.18;76.22;98898.87;1748083;81;21010;-40
2022/06/07 07:31:38;;;;;;;19.90;10.65;;;;;;;21.26;75.92;98905.56;1748144;81;21023;-41
2022/06/07 07:34:08;;;;;;;14.68;8.40;;;;;;;21.30;75.50;98904.23;1748266;81;21014;-40
2022/06/07 07:36:37;;;;;;;33.55;20.92;;;;;;;21.36;75.40;98902.77;1737741;82;20984;-57
2022/06/07 07:39:04;;;;;;;27.32;9.73;;;;;;;21.45;74.91;98909.33;1748137;81;20981;-56
2022/06/07 07:41:34;;;;;;;10.10;8.98;;;;;;;21.49;73.73;98908.50;1748251;82;21509;-46
2022/06/07 07:44:04;;;;;;;12.10;7.78;;;;;;;21.51;73.05;98914.52;1756853;81;21539;-51
2022/06/07 07:46:34;;;;;;;11.22;7.25;;;;;;;21.53;72.52;98914.36;1761432;81;21349;-52
2022/06/07 07:49:01;;;;;;;12.30;7.03;;;;;;;21.56;71.66;98920.22;1761492;81;21468;-44
2022/06/07 07:51:32;;;;;;;12.10;7.30;;;;;;;21.61;71.45;98917.89;1761645;81;21026;-48
2022/06/07 07:54:00;;;;;;;9.68;6.05;;;;;;;21.68;71.21;98915.38;1761473;81;21042;-50
2022/06/07 07:56:27;;;;;;;9.15;6.33;;;;;;;21.77;70.89;98915.72;1761491;81;20963;-49
2022/06/07 07:58:55;;;;;;;16.05;6.85;;;;;;;21.90;70.66;98915.73;1761489;81;21019;-47
2022/06/07 08:01:26;;;;;;;13.08;6.80;;;;;;;22.02;70.68;98917.08;1761692;80;20983;-45
2022/06/07 08:03:54;;;;;;;8.45;6.80;;;;;;;22.10;69.15;98912.22;1761440;81;20994;-43
2022/06/07 08:06:23;;;;;;;36.80;8.03;;;;;;;22.22;69.41;98911.70;1761433;81;21464;-47
2022/06/07 08:08:53;;;;;;;33.90;6.85;;;;;;;22.32;68.61;98914.26;1761436;81;20987;-45
2022/06/07 08:11:22;;;;;;;6.72;5.47;;;;;;;22.38;67.39;98907.38;1761497;81;20994;-51
2022/06/07 08:13:48;;;;;;;6.95;5.58;;;;;;;22.45;66.17;98907.52;1761422;81;20972;-50
2022/06/07 08:16:15;;;;;;;6.75;5.58;;;;;;;22.55;66.02;98913.53;1761467;81;20967;-44
2022/06/07 08:18:42;;;;;;;10.93;5.33;;;;;;;22.65;65.51;98907.97;1761933;81;20987;-47
2022/06/07 08:21:13;;;;;;;7.33;4.90;;;;;;;22.76;65.23;98911.13;1761551;81;21326;-41
2022/06/07 08:23:39;;;;;;;113.35;90.62;;;;;;;22.87;64.10;98916.63;1761482;80;20985;-48
2022/06/07 08:26:07;;;;;;;51.85;38.98;;;;;;;22.98;63.12;98916.25;1761513;81;21056;-53
2022/06/07 08:28:35;;;;;;;10.38;8.45;;;;;;;23.08;62.55;98923.27;1761467;81;20960;-52
2022/06/07 08:31:00;;;;;;;;;;;;;;;23.19;62.36;98925.56;1764142;80;21461;-49
2022/06/07 08:39:04;;;;;;;7.42;5.30;;;;;;;23.56;63.16;98927.55;1761434;81;21449;-44
2022/06/07 08:41:42;;;;;;;5.62;4.20;;;;;;;23.69;61.56;98926.96;1761419;81;21010;-47
2022/06/07 08:44:32;;;;;;;5.55;4.80;;;;;;;23.85;61.48;98927.39;1745013;82;21469;-49
2022/06/07 08:47:06;;;;;;;6.67;4.65;;;;;;;23.95;60.26;98931.17;1747050;81;21003;-43
2022/06/07 08:49:31;;;;;;;6.72;4.67;;;;;;;24.08;59.54;98920.64;1747309;82;20971;-46
2022/06/07 08:52:17;;;;;;;9.90;5.80;;;;;;;24.24;59.30;98925.05;1747511;82;20983;-42
2022/06/07 08:54:44;;;;;;;5.40;5.00;;;;;;;24.40;59.56;98921.89;1718059;82;21468;-46
2022/06/07 08:57:30;;;;;;;4.78;4.28;;;;;;;24.56;58.39;98923.10;1747608;82;20988;-45
2022/06/07 09:00:14;;;;;;;4.27;3.93;;;;;;;24.68;56.20;98919.44;1746327;82;21030;-48
2022/06/07 09:02:49;;;;;;;6.25;3.98;;;;;;;24.81;55.07;98919.64;1747490;82;20956;-44
2022/06/07 09:05:16;;;;;;;5.55;3.42;;;;;;;24.93;53.39;98915.13;1746595;82;20984;-51
2022/06/07 09:07:43;;;;;;;7.85;4.00;;;;;;;25.03;55.19;98918.34;1747507;82;20988;-40
2022/06/07 09:13:07;;;;;;;5.40;3.85;;;;;;;25.46;54.00;98909.89;1747513;82;21003;-50
2022/06/07 09:15:36;;;;;;;6.15;3.87;;;;;;;25.76;51.98;98912.99;1747544;82;21543;-48
2022/06/07 09:18:06;;;;;;;4.28;3.40;;;;;;;25.98;52.04;98912.01;1747504;82;21015;-50
2022/06/07 09:20:42;;;;;;;5.42;4.53;;;;;;;26.26;51.95;98912.55;1747642;82;21501;-51
2022/06/07 09:23:22;;;;;;;11.65;10.45;;;;;;;26.46;51.48;98905.13;1747658;82;21461;-45
2022/06/07 09:25:52;;;;;;;4.83;4.42;;;;;;;26.43;50.02;98901.80;1747283;81;20971;-48
2022/06/07 09:28:29;;;;;;;7.28;5.65;;;;;;;26.20;50.27;98906.59;1747508;81;20995;-55
2022/06/07 09:31:12;;;;;;;10.32;5.00;;;;;;;25.93;50.74;98906.36;1747524;82;20995;-46
2022/06/07 09:33:55;;;;;;;5.45;4.83;;;;;;;25.69;51.92;98899.48;1747569;82;21042;-52
2022/06/07 09:36:29;;;;;;;4.90;4.50;;;;;;;25.45;52.36;98903.35;1747492;82;20988;-45
2022/06/07 09:38:58;;;;;;;5.72;4.92;;;;;;;25.26;52.72;98909.67;1747465;82;21015;-50
2022/06/07 09:41:38;;;;;;;5.97;5.35;;;;;;;25.04;53.30;98906.58;1747422;82;20995;-54
2022/06/07 09:44:21;;;;;;;12.80;5.75;;;;;;;24.95;54.33;98907.70;1718092;82;21034;-47
2022/06/07 09:47:05;;;;;;;12.10;6.75;;;;;;;24.65;57.33;98903.17;1747217;81;20975;-48
2022/06/07 09:49:52;;;;;;;17.23;7.85;;;;;;;24.35;60.88;98899.59;1747929;82;20979;-49
2022/06/07 09:52:26;;;;;;;8.83;6.33;;;;;;;23.97;62.19;98896.91;1747065;82;20940;-52
2022/06/07 09:54:59;;;;;;;12.80;9.53;;;;;;;23.63;63.63;98895.96;1744763;82;20956;-43
2022/06/07 09:58:05;;;;;;;11.53;9.53;;;;;;;23.47;65.66;98888.36;1747487;82;21447;-51
2022/06/07 10:00:53;;;;;;;11.48;8.78;;;;;;;23.37;66.53;98886.41;1747595;82;21043;-53
2022/06/07 10:03:53;;;;;;;10.00;6.97;;;;;;;23.16;66.88;98889.20;1747457;82;21434;-58
2022/06/07 10:06:33;;;;;;;11.45;7.03;;;;;;;23.37;70.89;98887.75;1747463;82;21544;-46
2022/06/07 10:09:44;;;;;;;8.48;6.62;;;;;;;24.21;70.50;98877.56;1747207;81;21488;-52
2022/06/07 10:12:33;;;;;;;9.88;5.83;;;;;;;25.18;70.20;98868.58;1747572;82;20998;-48
2022/06/07 10:15:29;;;;;;;6.37;5.58;;;;;;;26.24;64.49;98866.09;1746972;82;21007;-54
2022/06/07 10:18:12;;;;;;;7.00;6.30;;;;;;;27.07;63.02;98862.61;1747512;82;21035;-47
2022/06/07 10:20:56;;;;;;;8.48;5.97;;;;;;;27.98;60.70;98857.33;1747433;82;21016;-38
2022/06/07 10:23:56;;;;;;;5.70;5.20;;;;;;;28.82;57.51;98848.47;1746500;82;21011;-49
2022/06/07 10:26:42;;;;;;;4.72;4.35;;;;;;;29.54;56.52;98851.55;1747170;82;21047;-46
2022/06/07 10:29:40;;;;;;;;;;;;;;;30.36;53.67;98852.40;1749879;82;21461;-51
2022/06/07 10:32:36;;;;;;;5.95;4.72;;;;;;;30.46;46.99;98847.80;1747467;82;20442;-48
2022/06/07 10:35:16;;;;;;;7.65;6.25;;;;;;;30.56;46.08;98848.12;1747208;82;20968;-43
2022/06/07 10:37:59;;;;;;;8.13;5.17;;;;;;;30.50;49.28;98842.76;1760742;80;21493;-50
2022/06/07 10:40:36;;;;;;;5.90;5.25;;;;;;;30.54;48.91;98839.35;1774779;80;20967;-51
2022/06/07 10:43:07;;;;;;;5.62;4.55;;;;;;;31.08;48.66;98838.22;1783968;80;21573;-47
2022/06/07 10:45:39;;;;;;;5.83;4.75;;;;;;;31.56;45.53;98839.23;1783325;80;20994;-49
2022/06/07 10:48:25;;;;;;;6.90;4.60;;;;;;;31.80;45.58;98836.05;1784178;80;20978;-55
2022/06/07 10:54:22;;;;;;;12.13;4.60;;;;;;;31.24;44.21;98826.42;1784190;80;21026;-44
2022/06/07 10:56:54;;;;;;;5.90;4.42;;;;;;;30.58;43.44;98818.02;1784185;80;21484;-48
2022/06/07 10:59:26;;;;;;;7.30;4.90;;;;;;;29.43;43.13;98820.08;1784023;80;21444;-45
2022/06/07 11:02:10;;;;;;;6.10;4.85;;;;;;;29.23;44.28;98812.58;1784116;80;20974;-45
2022/06/07 11:10:45;;;;;;;6.47;5.15;;;;;;;28.17;46.95;98797.02;1779417;79;20962;-41
2022/06/07 11:13:31;;;;;;;8.43;5.13;;;;;;;28.00;47.59;98794.44;1790424;80;20970;-42
2022/06/07 11:16:11;;;;;;;5.80;5.20;;;;;;;27.87;47.18;98794.75;1790012;80;20974;-45
2022/06/07 11:18:41;;;;;;;6.50;4.90;;;;;;;27.69;47.32;98789.98;1769980;80;20952;-51
2022/06/07 11:21:15;;;;;;;6.08;4.97;;;;;;;27.66;48.63;98788.21;1743261;80;20999;-44
2022/06/07 11:23:49;;;;;;;6.35;4.80;;;;;;;27.62;47.55;98785.62;1754926;81;21003;-45
2022/06/07 11:26:19;;;;;;;7.58;5.05;;;;;;;27.44;47.66;98788.41;1754954;81;20979;-48
2022/06/07 11:28:56;;;;;;;10.38;5.10;;;;;;;27.25;48.53;98794.56;1755842;80;20991;-49
2022/06/07 11:31:30;;;;;;;11.38;5.28;;;;;;;26.99;48.16;98790.25;1755946;81;21497;-50
2022/06/07 11:34:25;;;;;;;5.65;4.80;;;;;;;26.78;48.17;98802.55;1754604;81;21465;-57
2022/06/07 11:37:17;;;;;;;8.70;6.30;;;;;;;26.55;47.38;98804.99;1755903;82;20984;-45
2022/06/07 11:39:54;;;;;;;8.13;5.80;;;;;;;26.25;49.81;98824.65;1748180;82;21449;-55
2022/06/07 11:42:23;;;;;;;;;;;;;;;25.58;52.64;98838.07;1758554;81;20988;-49
2022/06/07 11:45:22;;;;;;;8.38;3.50;;;;;;;24.86;55.60;98831.14;1757123;80;20417;-48
2022/06/07 11:48:10;;;;;;;5.05;2.80;;;;;;;23.97;56.99;98831.11;1782595;79;20951;-41
2022/06/07 11:50:43;;;;;;;12.73;3.37;;;;;;;23.21;58.64;98848.43;1763530;81;20951;-39
2022/06/07 11:53:31;;;;;;;14.55;4.15;;;;;;;22.36;63.16;98853.97;1751250;80;20990;-45
2022/06/07 11:56:30;;;;;;;12.45;5.47;;;;;;;21.71;67.10;98866.05;1707427;83;21147;-48
2022/06/07 11:59:01;;;;;;;9.25;5.05;;;;;;;20.97;76.24;98861.36;1707392;84;20984;-48
2022/06/07 12:01:38;;;;;;;16.15;6.75;;;;;;;20.81;72.25;98866.64;1707147;84;20968;-49
2022/06/07 12:04:31;;;;;;;16.77;5.60;;;;;;;20.67;79.51;98867.59;1707529;84;21332;-51
2022/06/07 12:07:18;;;;;;;14.70;5.67;;;;;;;20.55;79.86;98872.84;1707538;84;20984;-52
2022/06/07 12:09:54;;;;;;;12.60;4.00;;;;;;;20.49;81.04;98881.50;1707294;83;21016;-51
2022/06/07 12:12:38;;;;;;;5.43;3.10;;;;;;;20.41;77.04;98878.77;1707606;84;20980;-57